sensor_id;sensor_type;location;lat;lon;timestamp;pressure;altitude;pressure_sealevel;temperature;humidity
55070;BME280;40967;52.070;8.596;2023-05-16T00:01:55;100426.44;;;11.10;93.26
55070;BME280;40967;52.070;8.596;2023-05-16T00:04:21;100425.38;;;11.11;93.53
55070;BME280;40967;52.070;8.596;2023-05-16T00:06:46;100427.53;;;11.14;93.46
55070;BME280;40967;52.070;8.596;2023-05-16T00:09:12;100421.28;;;11.14;93.28
55070;BME280;40967;52.070;8.596;2023-05-16T00:11:37;100426.44;;;11.20;93.29
55070;BME280;40967;52.070;8.596;2023-05-16T00:14:03;100438.34;;;11.29;92.59
55070;BME280;40967;52.070;8.596;2023-05-16T00:16:29;100431.53;;;11.37;92.38
55070;BME280;40967;52.070;8.596;2023-05-16T00:18:55;100429.09;;;11.35;92.36
55070;BME280;40967;52.070;8.596;2023-05-16T00:21:25;100430.72;;;11.36;92.28
55070;BME280;40967;52.070;8.596;2023-05-16T00:23:50;100420.97;;;11.30;92.28
55070;BME280;40967;52.070;8.596;2023-05-16T00:26:17;100427.47;;;11.29;92.73
55070;BME280;40967;52.070;8.596;2023-05-16T00:28:42;100420.72;;;11.27;92.85
55070;BME280;40967;52.070;8.596;2023-05-16T00:31:08;100425.88;;;11.23;93.28
55070;BME280;40967;52.070;8.596;2023-05-16T00:33:33;100427.50;;;11.24;93.66
55070;BME280;40967;52.070;8.596;2023-05-16T00:35:59;100424.78;;;11.24;93.29
55070;BME280;40967;52.070;8.596;2023-05-16T00:38:24;100423.16;;;11.23;93.72
55070;BME280;40967;52.070;8.596;2023-05-16T00:40:50;100423.72;;;11.20;93.86
55070;BME280;40967;52.070;8.596;2023-05-16T00:43:16;100431.34;;;11.18;94.30
55070;BME280;40967;52.070;8.596;2023-05-16T00:45:41;100425.63;;;11.15;94.08
55070;BME280;40967;52.070;8.596;2023-05-16T00:48:07;100426.97;;;11.17;94.13
55070;BME280;40967;52.070;8.596;2023-05-16T00:50:35;100431.63;;;11.17;93.80
55070;BME280;40967;52.070;8.596;2023-05-16T00:53:01;100420.50;;;11.13;94.15
55070;BME280;40967;52.070;8.596;2023-05-16T00:55:26;100422.94;;;11.15;93.74
55070;BME280;40967;52.070;8.596;2023-05-16T00:57:56;100429.16;;;11.20;93.87
55070;BME280;40967;52.070;8.596;2023-05-16T01:00:22;100435.09;;;11.22;93.79
55070;BME280;40967;52.070;8.596;2023-05-16T01:02:48;100426.44;;;11.20;93.25
55070;BME280;40967;52.070;8.596;2023-05-16T01:05:16;100428.06;;;11.16;93.78
55070;BME280;40967;52.070;8.596;2023-05-16T01:07:41;100425.38;;;11.11;93.84
55070;BME280;40967;52.070;8.596;2023-05-16T01:10:07;100427.00;;;11.02;94.02
55070;BME280;40967;52.070;8.596;2023-05-16T01:12:49;100424.59;;;10.96;93.94
55070;BME280;40967;52.070;8.596;2023-05-16T01:15:25;100427.59;;;10.89;94.16
55070;BME280;40967;52.070;8.596;2023-05-16T01:20:58;100426.78;;;10.89;94.74
55070;BME280;40967;52.070;8.596;2023-05-16T01:24:21;100430.81;;;10.96;94.03
55070;BME280;40967;52.070;8.596;2023-05-16T01:26:39;100432.44;;;11.02;93.20
55070;BME280;40967;52.070;8.596;2023-05-16T01:29:06;100429.72;;;11.07;92.74
55070;BME280;40967;52.070;8.596;2023-05-16T01:31:32;100433.53;;;11.11;92.62
55070;BME280;40967;52.070;8.596;2023-05-16T01:33:57;100435.69;;;11.14;92.94
55070;BME280;40967;52.070;8.596;2023-05-16T01:39:44;100426.44;;;11.15;92.73
55070;BME280;40967;52.070;8.596;2023-05-16T01:42:16;100423.19;;;11.18;92.69
55070;BME280;40967;52.070;8.596;2023-05-16T01:44:55;100432.13;;;11.24;92.36
55070;BME280;40967;52.070;8.596;2023-05-16T01:47:24;100435.66;;;11.24;93.03
55070;BME280;40967;52.070;8.596;2023-05-16T01:50:03;100442.75;;;11.20;93.59
55070;BME280;40967;52.070;8.596;2023-05-16T01:52:37;100438.94;;;11.16;94.65
55070;BME280;40967;52.070;8.596;2023-05-16T01:55:09;100453.06;;;11.03;96.19
55070;BME280;40967;52.070;8.596;2023-05-16T01:57:37;100454.72;;;10.94;97.21
55070;BME280;40967;52.070;8.596;2023-05-16T02:00:03;100452.81;;;10.90;97.50
55070;BME280;40967;52.070;8.596;2023-05-16T02:02:30;100460.69;;;10.81;97.75
55070;BME280;40967;52.070;8.596;2023-05-16T02:04:55;100469.13;;;10.70;98.58
55070;BME280;40967;52.070;8.596;2023-05-16T02:07:21;100480.25;;;10.63;99.17
55070;BME280;40967;52.070;8.596;2023-05-16T02:09:46;100477.78;;;10.57;99.33
55070;BME280;40967;52.070;8.596;2023-05-16T02:12:12;100479.44;;;10.58;98.95
55070;BME280;40967;52.070;8.596;2023-05-16T02:14:37;100481.31;;;10.57;98.76
55070;BME280;40967;52.070;8.596;2023-05-16T02:17:03;100486.75;;;10.62;98.07
55070;BME280;40967;52.070;8.596;2023-05-16T02:19:28;100481.31;;;10.57;97.94
55070;BME280;40967;52.070;8.596;2023-05-16T02:21:53;100490.28;;;10.58;97.63
55070;BME280;40967;52.070;8.596;2023-05-16T02:24:19;100484.56;;;10.49;97.84
55070;BME280;40967;52.070;8.596;2023-05-16T02:26:44;100490.50;;;10.41;98.66
55070;BME280;40967;52.070;8.596;2023-05-16T02:29:10;100486.47;;;10.39;98.95
55070;BME280;40967;52.070;8.596;2023-05-16T02:31:35;100490.25;;;10.38;99.10
55070;BME280;40967;52.070;8.596;2023-05-16T02:34:01;100491.34;;;10.37;99.20
55070;BME280;40967;52.070;8.596;2023-05-16T02:36:27;100485.91;;;10.32;99.08
55070;BME280;40967;52.070;8.596;2023-05-16T02:38:52;100485.63;;;10.23;99.63
55070;BME280;40967;52.070;8.596;2023-05-16T02:41:18;100491.31;;;10.26;99.66
55070;BME280;40967;52.070;8.596;2023-05-16T02:43:47;100491.06;;;10.33;99.25
55070;BME280;40967;52.070;8.596;2023-05-16T02:46:23;100489.97;;;10.39;98.23
55070;BME280;40967;52.070;8.596;2023-05-16T02:48:49;100496.75;;;10.32;97.81
55070;BME280;40967;52.070;8.596;2023-05-16T02:51:15;100496.47;;;10.23;98.25
55070;BME280;40967;52.070;8.596;2023-05-16T02:53:41;100500.78;;;10.19;97.58
55070;BME280;40967;52.070;8.596;2023-05-16T02:56:06;100501.84;;;10.13;98.00
55070;BME280;40967;52.070;8.596;2023-05-16T02:58:32;100492.31;;;10.05;98.03
55070;BME280;40967;52.070;8.596;2023-05-16T03:00:57;100505.09;;;10.10;98.00
55070;BME280;40967;52.070;8.596;2023-05-16T03:03:23;100503.44;;;10.04;98.26
55070;BME280;40967;52.070;8.596;2023-05-16T03:05:48;100494.75;;;10.02;98.63
55070;BME280;40967;52.070;8.596;2023-05-16T03:08:14;100502.34;;;10.05;97.90
55070;BME280;40967;52.070;8.596;2023-05-16T03:10:39;100507.47;;;10.01;97.76
55070;BME280;40967;52.070;8.596;2023-05-16T03:13:05;100510.44;;;10.00;97.33
55070;BME280;40967;52.070;8.596;2023-05-16T03:15:30;100506.13;;;9.99;97.19
55070;BME280;40967;52.070;8.596;2023-05-16T03:17:59;100496.06;;;9.94;96.56
55070;BME280;40967;52.070;8.596;2023-05-16T03:20:24;100515.31;;;9.93;96.24
55070;BME280;40967;52.070;8.596;2023-05-16T03:22:50;100514.97;;;9.79;96.83
55070;BME280;40967;52.070;8.596;2023-05-16T03:25:18;100528.25;;;9.76;97.09
55070;BME280;40967;52.070;8.596;2023-05-16T03:27:44;100534.44;;;9.71;97.58
55070;BME280;40967;52.070;8.596;2023-05-16T03:30:10;100541.44;;;9.62;97.17
55070;BME280;40967;52.070;8.596;2023-05-16T03:32:37;100546.28;;;9.55;97.82
55070;BME280;40967;52.070;8.596;2023-05-16T03:35:02;100539.75;;;9.51;98.02
55070;BME280;40967;52.070;8.596;2023-05-16T03:37:28;100535.66;;;9.49;97.59
55070;BME280;40967;52.070;8.596;2023-05-16T03:39:53;100544.34;;;9.51;97.12
55070;BME280;40967;52.070;8.596;2023-05-16T03:42:19;100550.31;;;9.53;96.32
55070;BME280;40967;52.070;8.596;2023-05-16T03:44:44;100556.25;;;9.50;96.40
55070;BME280;40967;52.070;8.596;2023-05-16T03:47:10;100559.53;;;9.52;95.55
55070;BME280;40967;52.070;8.596;2023-05-16T03:49:38;100554.59;;;9.44;95.27
55070;BME280;40967;52.070;8.596;2023-05-16T03:52:04;100564.41;;;9.55;95.27
55070;BME280;40967;52.070;8.596;2023-05-16T03:54:30;100559.00;;;9.55;94.86
55070;BME280;40967;52.070;8.596;2023-05-16T03:56:55;100569.88;;;9.60;94.54
55070;BME280;40967;52.070;8.596;2023-05-16T03:59:20;100566.84;;;9.56;94.61
55070;BME280;40967;52.070;8.596;2023-05-16T04:01:46;100573.13;;;9.62;94.50
55070;BME280;40967;52.070;8.596;2023-05-16T04:04:12;100579.06;;;9.59;94.68
55070;BME280;40967;52.070;8.596;2023-05-16T04:06:38;100574.09;;;9.46;95.04
55070;BME280;40967;52.070;8.596;2023-05-16T04:09:04;100570.25;;;9.37;94.84
55070;BME280;40967;52.070;8.596;2023-05-16T04:11:33;100570.75;;;9.29;95.34
55070;BME280;40967;52.070;8.596;2023-05-16T04:13:59;100580.97;;;9.22;95.65
55070;BME280;40967;52.070;8.596;2023-05-16T04:16:25;100585.47;;;9.11;95.29
55070;BME280;40967;52.070;8.596;2023-05-16T04:18:51;100581.06;;;9.00;95.90
55070;BME280;40967;52.070;8.596;2023-05-16T04:21:17;100593.25;;;9.02;95.64
55070;BME280;40967;52.070;8.596;2023-05-16T04:23:42;100600.03;;;9.00;95.13
55070;BME280;40967;52.070;8.596;2023-05-16T04:26:08;100602.97;;;8.98;95.27
55070;BME280;40967;52.070;8.596;2023-05-16T04:28:33;100611.59;;;8.95;94.94
55070;BME280;40967;52.070;8.596;2023-05-16T04:30:58;100608.88;;;8.95;94.83
55070;BME280;40967;52.070;8.596;2023-05-16T04:33:24;100619.19;;;8.98;94.71
55070;BME280;40967;52.070;8.596;2023-05-16T04:35:50;100618.88;;;8.95;94.36
55070;BME280;40967;52.070;8.596;2023-05-16T04:38:17;100618.41;;;8.98;93.83
55070;BME280;40967;52.070;8.596;2023-05-16T04:40:43;100622.69;;;8.94;93.29
55070;BME280;40967;52.070;8.596;2023-05-16T04:43:09;100620.53;;;8.96;92.71
55070;BME280;40967;52.070;8.596;2023-05-16T04:45:40;100626.25;;;8.99;92.29
55070;BME280;40967;52.070;8.596;2023-05-16T04:48:07;100633.28;;;9.00;92.11
55070;BME280;40967;52.070;8.596;2023-05-16T04:50:32;100641.72;;;9.04;91.96
55070;BME280;40967;52.070;8.596;2023-05-16T04:52:58;100640.13;;;9.08;91.66
55070;BME280;40967;52.070;8.596;2023-05-16T04:55:23;100636.34;;;9.09;90.95
55070;BME280;40967;52.070;8.596;2023-05-16T04:57:49;100648.22;;;9.03;90.68
55070;BME280;40967;52.070;8.596;2023-05-16T05:00:16;100651.19;;;9.01;91.00
55070;BME280;40967;52.070;8.596;2023-05-16T05:02:41;100652.53;;;9.04;90.67
55070;BME280;40967;52.070;8.596;2023-05-16T05:05:08;100650.97;;;9.08;90.06
55070;BME280;40967;52.070;8.596;2023-05-16T05:07:33;100650.66;;;9.04;90.20
55070;BME280;40967;52.070;8.596;2023-05-16T05:09:59;100660.09;;;9.02;90.42
55070;BME280;40967;52.070;8.596;2023-05-16T05:12:24;100667.69;;;9.00;90.44
55070;BME280;40967;52.070;8.596;2023-05-16T05:14:54;100664.09;;;8.94;90.37
55070;BME280;40967;52.070;8.596;2023-05-16T05:17:23;100666.28;;;8.97;90.35
55070;BME280;40967;52.070;8.596;2023-05-16T05:19:48;100668.22;;;9.02;89.87
55070;BME280;40967;52.070;8.596;2023-05-16T05:22:17;100675.28;;;9.03;90.02
55070;BME280;40967;52.070;8.596;2023-05-16T05:24:42;100676.59;;;9.00;90.05
55070;BME280;40967;52.070;8.596;2023-05-16T05:27:08;100678.41;;;8.95;90.58
55070;BME280;40967;52.070;8.596;2023-05-16T05:29:34;100676.53;;;8.95;90.56
55070;BME280;40967;52.070;8.596;2023-05-16T05:31:59;100684.13;;;8.98;90.18
55070;BME280;40967;52.070;8.596;2023-05-16T05:34:25;100690.63;;;8.97;90.58
55070;BME280;40967;52.070;8.596;2023-05-16T05:36:50;100690.03;;;8.90;90.30
55070;BME280;40967;52.070;8.596;2023-05-16T05:39:16;100692.47;;;8.92;90.60
55070;BME280;40967;52.070;8.596;2023-05-16T05:41:41;100706.31;;;8.95;90.40
55070;BME280;40967;52.070;8.596;2023-05-16T05:44:07;100693.88;;;8.94;90.19
55070;BME280;40967;52.070;8.596;2023-05-16T05:46:33;100701.34;;;8.87;90.01
55070;BME280;40967;52.070;8.596;2023-05-16T05:48:59;100702.94;;;8.83;90.42
55070;BME280;40967;52.070;8.596;2023-05-16T05:51:25;100702.97;;;8.88;90.37
55070;BME280;40967;52.070;8.596;2023-05-16T05:53:51;100705.16;;;8.91;89.73
55070;BME280;40967;52.070;8.596;2023-05-16T05:56:17;100699.59;;;8.98;89.83
55070;BME280;40967;52.070;8.596;2023-05-16T05:58:42;100699.38;;;9.04;89.65
55070;BME280;40967;52.070;8.596;2023-05-16T06:01:09;100702.53;;;8.96;89.28
55070;BME280;40967;52.070;8.596;2023-05-16T06:03:35;100716.75;;;8.87;89.37
55070;BME280;40967;52.070;8.596;2023-05-16T06:06:00;100718.16;;;8.89;89.36
55070;BME280;40967;52.070;8.596;2023-05-16T06:08:26;100722.53;;;8.95;89.21
55070;BME280;40967;52.070;8.596;2023-05-16T06:10:51;100712.59;;;9.01;89.21
55070;BME280;40967;52.070;8.596;2023-05-16T06:13:17;100718.69;;;9.13;88.18
55070;BME280;40967;52.070;8.596;2023-05-16T06:15:42;100725.22;;;9.17;88.28
55070;BME280;40967;52.070;8.596;2023-05-16T06:18:07;100716.03;;;9.18;88.34
55070;BME280;40967;52.070;8.596;2023-05-16T06:20:33;100721.34;;;9.35;88.10
55070;BME280;40967;52.070;8.596;2023-05-16T06:22:58;100734.75;;;9.51;87.55
55070;BME280;40967;52.070;8.596;2023-05-16T06:25:24;100725.66;;;9.62;86.40
55070;BME280;40967;52.070;8.596;2023-05-16T06:27:49;100730.81;;;9.64;85.17
55070;BME280;40967;52.070;8.596;2023-05-16T06:30:15;100733.06;;;9.77;84.76
55070;BME280;40967;52.070;8.596;2023-05-16T06:32:40;100733.81;;;9.99;83.93
55070;BME280;40967;52.070;8.596;2023-05-16T06:35:06;100744.28;;;10.22;82.93
55070;BME280;40967;52.070;8.596;2023-05-16T06:37:33;100741.91;;;10.36;82.38
55070;BME280;40967;52.070;8.596;2023-05-16T06:39:58;100739.28;;;10.46;81.85
55070;BME280;40967;52.070;8.596;2023-05-16T06:42:24;100742.25;;;10.44;80.85
55070;BME280;40967;52.070;8.596;2023-05-16T06:44:49;100750.44;;;10.49;81.05
55070;BME280;40967;52.070;8.596;2023-05-16T06:47:15;100749.41;;;10.65;80.90
55070;BME280;40967;52.070;8.596;2023-05-16T06:49:40;100744.28;;;10.74;79.95
55070;BME280;40967;52.070;8.596;2023-05-16T06:52:06;100743.06;;;11.01;79.59
55070;BME280;40967;52.070;8.596;2023-05-16T06:54:31;100751.81;;;11.38;77.48
55070;BME280;40967;52.070;8.596;2023-05-16T06:56:57;100752.66;;;11.59;75.63
55070;BME280;40967;52.070;8.596;2023-05-16T06:59:22;100747.84;;;11.76;73.67
55070;BME280;40967;52.070;8.596;2023-05-16T07:01:48;100748.66;;;11.97;72.34
55070;BME280;40967;52.070;8.596;2023-05-16T07:04:13;100751.31;;;12.22;71.79
55070;BME280;40967;52.070;8.596;2023-05-16T07:06:39;100759.16;;;12.48;71.58
55070;BME280;40967;52.070;8.596;2023-05-16T07:09:05;100754.25;;;12.55;70.18
55070;BME280;40967;52.070;8.596;2023-05-16T07:11:31;100756.69;;;12.57;69.85
55070;BME280;40967;52.070;8.596;2023-05-16T07:13:56;100762.63;;;12.74;69.54
55070;BME280;40967;52.070;8.596;2023-05-16T07:16:22;100758.41;;;13.07;68.01
55070;BME280;40967;52.070;8.596;2023-05-16T07:18:48;100762.41;;;13.24;66.16
55070;BME280;40967;52.070;8.596;2023-05-16T07:21:13;100753.88;;;13.41;66.09
55070;BME280;40967;52.070;8.596;2023-05-16T07:23:39;100760.25;;;13.65;64.73
55070;BME280;40967;52.070;8.596;2023-05-16T07:26:04;100763.69;;;13.81;63.48
55070;BME280;40967;52.070;8.596;2023-05-16T07:28:30;100766.00;;;13.97;61.92
55070;BME280;40967;52.070;8.596;2023-05-16T07:30:55;100761.84;;;14.05;60.06
55070;BME280;40967;52.070;8.596;2023-05-16T07:33:23;100752.31;;;14.02;60.39
55070;BME280;40967;52.070;8.596;2023-05-16T07:35:49;100753.66;;;14.05;59.87
55070;BME280;40967;52.070;8.596;2023-05-16T07:38:14;100760.00;;;14.29;59.66
55070;BME280;40967;52.070;8.596;2023-05-16T07:40:39;100755.63;;;14.56;60.03
55070;BME280;40967;52.070;8.596;2023-05-16T07:43:05;100761.88;;;14.80;59.00
55070;BME280;40967;52.070;8.596;2023-05-16T07:45:30;100767.53;;;14.42;57.49
55070;BME280;40967;52.070;8.596;2023-05-16T07:47:56;100767.00;;;13.73;58.91
55070;BME280;40967;52.070;8.596;2023-05-16T07:50:22;100767.47;;;13.46;60.50
55070;BME280;40967;52.070;8.596;2023-05-16T07:52:47;100762.47;;;13.14;60.31
55070;BME280;40967;52.070;8.596;2023-05-16T07:55:12;100762.91;;;12.73;60.53
55070;BME280;40967;52.070;8.596;2023-05-16T07:57:38;100759.91;;;12.74;61.91
55070;BME280;40967;52.070;8.596;2023-05-16T08:00:04;100762.31;;;12.81;62.36
55070;BME280;40967;52.070;8.596;2023-05-16T08:02:30;100771.03;;;12.83;62.69
55070;BME280;40967;52.070;8.596;2023-05-16T08:04:55;100772.94;;;12.87;62.94
55070;BME280;40967;52.070;8.596;2023-05-16T08:07:24;100763.06;;;13.06;62.63
55070;BME280;40967;52.070;8.596;2023-05-16T08:09:49;100770.22;;;12.87;61.52
55070;BME280;40967;52.070;8.596;2023-05-16T08:12:15;100774.91;;;12.62;62.12
55070;BME280;40967;52.070;8.596;2023-05-16T08:14:40;100781.25;;;12.22;63.33
55070;BME280;40967;52.070;8.596;2023-05-16T08:17:06;100779.34;;;11.97;64.04
55070;BME280;40967;52.070;8.596;2023-05-16T08:19:31;100777.97;;;11.80;64.47
55070;BME280;40967;52.070;8.596;2023-05-16T08:21:57;100775.53;;;11.78;64.90
55070;BME280;40967;52.070;8.596;2023-05-16T08:24:23;100779.63;;;11.91;64.08
55070;BME280;40967;52.070;8.596;2023-05-16T08:26:49;100778.28;;;11.93;63.08
55070;BME280;40967;52.070;8.596;2023-05-16T08:29:14;100785.63;;;11.98;62.40
55070;BME280;40967;52.070;8.596;2023-05-16T08:31:40;100777.19;;;11.94;62.12
55070;BME280;40967;52.070;8.596;2023-05-16T08:34:05;100779.63;;;12.16;63.00
55070;BME280;40967;52.070;8.596;2023-05-16T08:36:31;100789.06;;;12.58;63.26
55070;BME280;40967;52.070;8.596;2023-05-16T08:38:59;100789.06;;;12.64;61.77
55070;BME280;40967;52.070;8.596;2023-05-16T08:41:24;100776.31;;;12.54;62.14
55070;BME280;40967;52.070;8.596;2023-05-16T08:43:50;100776.81;;;12.66;61.97
55070;BME280;40967;52.070;8.596;2023-05-16T08:46:20;100772.69;;;12.84;61.55
55070;BME280;40967;52.070;8.596;2023-05-16T08:48:51;100766.38;;;12.88;60.46
55070;BME280;40967;52.070;8.596;2023-05-16T08:51:20;100775.28;;;13.14;60.12
55070;BME280;40967;52.070;8.596;2023-05-16T08:53:53;100776.25;;;13.33;59.98
55070;BME280;40967;52.070;8.596;2023-05-16T08:56:20;100780.00;;;13.47;58.62
55070;BME280;40967;52.070;8.596;2023-05-16T08:58:49;100777.66;;;13.30;58.29
55070;BME280;40967;52.070;8.596;2023-05-16T09:01:16;100783.19;;;13.10;57.91
55070;BME280;40967;52.070;8.596;2023-05-16T09:03:42;100776.44;;;13.03;57.86
55070;BME280;40967;52.070;8.596;2023-05-16T09:06:08;100784.28;;;13.14;57.82
55070;BME280;40967;52.070;8.596;2023-05-16T09:08:34;100776.38;;;13.61;56.76
55070;BME280;40967;52.070;8.596;2023-05-16T09:11:01;100776.59;;;14.04;56.17
55070;BME280;40967;52.070;8.596;2023-05-16T09:13:26;100769.09;;;14.19;54.51
55070;BME280;40967;52.070;8.596;2023-05-16T09:16:12;100763.91;;;14.18;54.62
55070;BME280;40967;52.070;8.596;2023-05-16T09:18:38;100776.28;;;14.39;54.20
55070;BME280;40967;52.070;8.596;2023-05-16T09:21:04;100784.09;;;14.17;54.60
55070;BME280;40967;52.070;8.596;2023-05-16T09:23:32;100788.78;;;13.83;54.82
55070;BME280;40967;52.070;8.596;2023-05-16T09:25:58;100784.16;;;13.78;55.36
55070;BME280;40967;52.070;8.596;2023-05-16T09:28:27;100783.19;;;13.98;55.55
55070;BME280;40967;52.070;8.596;2023-05-16T09:30:52;100789.94;;;14.05;55.08
55070;BME280;40967;52.070;8.596;2023-05-16T09:33:23;100784.69;;;14.14;54.48
55070;BME280;40967;52.070;8.596;2023-05-16T09:35:58;100771.47;;;14.31;54.36
55070;BME280;40967;52.070;8.596;2023-05-16T09:38:27;100768.91;;;14.39;53.40
55070;BME280;40967;52.070;8.596;2023-05-16T09:40:54;100781.44;;;14.45;52.83
55070;BME280;40967;52.070;8.596;2023-05-16T09:43:24;100768.56;;;14.17;53.00
55070;BME280;40967;52.070;8.596;2023-05-16T09:45:50;100773.16;;;14.22;53.76
55070;BME280;40967;52.070;8.596;2023-05-16T09:48:16;100781.69;;;14.44;53.71
55070;BME280;40967;52.070;8.596;2023-05-16T09:50:52;100784.16;;;14.69;52.95
55070;BME280;40967;52.070;8.596;2023-05-16T09:53:26;100780.38;;;14.65;50.73
55070;BME280;40967;52.070;8.596;2023-05-16T09:56:02;100769.47;;;14.89;51.26
55070;BME280;40967;52.070;8.596;2023-05-16T09:58:31;100767.63;;;15.45;51.70
55070;BME280;40967;52.070;8.596;2023-05-16T10:00:57;100769.88;;;15.93;51.16
55070;BME280;40967;52.070;8.596;2023-05-16T10:03:25;100769.66;;;16.09;49.68
55070;BME280;40967;52.070;8.596;2023-05-16T10:05:51;100767.91;;;16.13;49.33
55070;BME280;40967;52.070;8.596;2023-05-16T10:08:20;100769.63;;;15.76;48.52
55070;BME280;40967;52.070;8.596;2023-05-16T10:10:49;100776.25;;;15.15;49.39
55070;BME280;40967;52.070;8.596;2023-05-16T10:13:20;100774.69;;;14.61;50.62
55070;BME280;40967;52.070;8.596;2023-05-16T10:15:46;100773.00;;;14.42;52.11
55070;BME280;40967;52.070;8.596;2023-05-16T10:18:13;100772.13;;;14.46;51.54
55070;BME280;40967;52.070;8.596;2023-05-16T10:20:41;100776.16;;;14.54;51.29
55070;BME280;40967;52.070;8.596;2023-05-16T10:23:08;100775.97;;;14.69;51.14
55070;BME280;40967;52.070;8.596;2023-05-16T10:25:39;100758.38;;;14.80;50.35
55070;BME280;40967;52.070;8.596;2023-05-16T10:28:06;100770.78;;;15.15;49.36
55070;BME280;40967;52.070;8.596;2023-05-16T10:30:33;100767.72;;;15.58;48.78
55070;BME280;40967;52.070;8.596;2023-05-16T10:33:00;100760.00;;;15.79;48.27
55070;BME280;40967;52.070;8.596;2023-05-16T10:35:26;100767.97;;;15.94;47.71
55070;BME280;40967;52.070;8.596;2023-05-16T10:37:52;100764.44;;;15.75;47.82
55070;BME280;40967;52.070;8.596;2023-05-16T10:40:19;100761.97;;;15.60;48.22
55070;BME280;40967;52.070;8.596;2023-05-16T10:42:55;100762.91;;;15.50;47.39
55070;BME280;40967;52.070;8.596;2023-05-16T10:45:21;100766.97;;;15.53;46.87
55070;BME280;40967;52.070;8.596;2023-05-16T10:47:52;100767.94;;;15.43;45.63
55070;BME280;40967;52.070;8.596;2023-05-16T10:53:21;100760.50;;;15.25;46.36
55070;BME280;40967;52.070;8.596;2023-05-16T10:56:04;100765.84;;;15.35;46.83
55070;BME280;40967;52.070;8.596;2023-05-16T11:09:26;100772.28;;;15.81;47.04
55070;BME280;40967;52.070;8.596;2023-05-16T11:17:19;100784.19;;;16.23;46.29
55070;BME280;40967;52.070;8.596;2023-05-16T11:19:56;100785.19;;;16.27;46.75
55070;BME280;40967;52.070;8.596;2023-05-16T11:22:33;100777.63;;;16.37;46.68
55070;BME280;40967;52.070;8.596;2023-05-16T11:25:09;100780.84;;;16.26;47.18
55070;BME280;40967;52.070;8.596;2023-05-16T11:27:47;100778.06;;;16.12;47.59
55070;BME280;40967;52.070;8.596;2023-05-16T11:30:14;100775.03;;;16.14;48.19
55070;BME280;40967;52.070;8.596;2023-05-16T11:32:42;100781.84;;;16.30;48.10
55070;BME280;40967;52.070;8.596;2023-05-16T11:35:15;100777.91;;;16.36;47.80
55070;BME280;40967;52.070;8.596;2023-05-16T11:37:41;100775.78;;;16.01;47.86
55070;BME280;40967;52.070;8.596;2023-05-16T11:40:09;100767.75;;;15.90;47.58
55070;BME280;40967;52.070;8.596;2023-05-16T11:42:44;100763.25;;;16.13;46.80
55070;BME280;40967;52.070;8.596;2023-05-16T11:47:41;100757.94;;;16.35;45.38
55070;BME280;40967;52.070;8.596;2023-05-16T11:50:12;100774.00;;;16.42;45.31
55070;BME280;40967;52.070;8.596;2023-05-16T11:52:39;100771.81;;;16.57;45.36
55070;BME280;40967;52.070;8.596;2023-05-16T11:55:08;100770.19;;;16.83;44.42
55070;BME280;40967;52.070;8.596;2023-05-16T11:57:40;100775.25;;;17.17;43.98
55070;BME280;40967;52.070;8.596;2023-05-16T12:00:19;100769.03;;;17.12;43.00
55070;BME280;40967;52.070;8.596;2023-05-16T12:02:46;100771.00;;;17.11;42.57
55070;BME280;40967;52.070;8.596;2023-05-16T12:05:12;100778.47;;;17.19;42.38
55070;BME280;40967;52.070;8.596;2023-05-16T12:07:38;100779.94;;;16.89;42.04
55070;BME280;40967;52.070;8.596;2023-05-16T12:10:09;100782.47;;;16.40;42.15
55070;BME280;40967;52.070;8.596;2023-05-16T12:12:35;100775.88;;;15.96;42.77
55070;BME280;40967;52.070;8.596;2023-05-16T12:15:05;100779.59;;;15.67;43.67
55070;BME280;40967;52.070;8.596;2023-05-16T12:17:33;100783.50;;;15.80;44.15
55070;BME280;40967;52.070;8.596;2023-05-16T12:19:59;100778.91;;;15.94;44.28
55070;BME280;40967;52.070;8.596;2023-05-16T12:22:24;100780.53;;;15.95;44.21
55070;BME280;40967;52.070;8.596;2023-05-16T12:24:50;100772.69;;;16.07;43.71
55070;BME280;40967;52.070;8.596;2023-05-16T12:27:25;100778.66;;;16.09;43.51
55070;BME280;40967;52.070;8.596;2023-05-16T12:29:57;100769.44;;;15.86;42.69
55070;BME280;40967;52.070;8.596;2023-05-16T12:32:23;100765.28;;;15.75;42.65
55070;BME280;40967;52.070;8.596;2023-05-16T12:34:49;100768.88;;;15.71;43.14
55070;BME280;40967;52.070;8.596;2023-05-16T12:37:16;100766.72;;;15.86;43.27
55070;BME280;40967;52.070;8.596;2023-05-16T12:39:41;100774.25;;;15.95;42.05
55070;BME280;40967;52.070;8.596;2023-05-16T12:42:07;100782.84;;;15.69;42.05
55070;BME280;40967;52.070;8.596;2023-05-16T12:44:34;100765.72;;;15.45;42.64
55070;BME280;40967;52.070;8.596;2023-05-16T12:47:01;100779.81;;;15.34;43.33
55070;BME280;40967;52.070;8.596;2023-05-16T12:49:26;100763.69;;;15.32;43.28
55070;BME280;40967;52.070;8.596;2023-05-16T12:51:54;100769.63;;;15.58;43.29
55070;BME280;40967;52.070;8.596;2023-05-16T12:54:20;100773.78;;;15.55;42.15
55070;BME280;40967;52.070;8.596;2023-05-16T12:56:47;100771.41;;;15.49;42.38
55070;BME280;40967;52.070;8.596;2023-05-16T12:59:14;100780.00;;;15.42;42.18
55070;BME280;40967;52.070;8.596;2023-05-16T13:01:40;100780.97;;;15.51;42.60
55070;BME280;40967;52.070;8.596;2023-05-16T13:04:06;100774.03;;;15.91;42.46
55070;BME280;40967;52.070;8.596;2023-05-16T13:06:32;100775.69;;;16.38;42.28
55070;BME280;40967;52.070;8.596;2023-05-16T13:08:58;100785.09;;;16.77;42.08
55070;BME280;40967;52.070;8.596;2023-05-16T13:11:24;100775.97;;;17.09;41.89
55070;BME280;40967;52.070;8.596;2023-05-16T13:13:50;100781.47;;;17.45;41.87
55070;BME280;40967;52.070;8.596;2023-05-16T13:16:18;100782.31;;;17.45;41.44
55070;BME280;40967;52.070;8.596;2023-05-16T13:18:44;100784.91;;;17.64;41.92
55070;BME280;40967;52.070;8.596;2023-05-16T13:21:13;100777.03;;;18.06;41.36